sensor_id;sensor_type;location;lat;lon;timestamp;temperature;humidity
32614;DHT22;19031;51.400;6.770;2023-07-09T00:00:48;22.80;99.90
32614;DHT22;19031;51.400;6.770;2023-07-09T00:03:14;22.80;99.90
32614;DHT22;19031;51.400;6.770;2023-07-09T00:05:40;22.80;99.90
32614;DHT22;19031;51.400;6.770;2023-07-09T00:08:05;22.70;99.90
32614;DHT22;19031;51.400;6.770;2023-07-09T00:10:31;22.70;99.90
32614;DHT22;19031;51.400;6.770;2023-07-09T00:12:56;22.60;99.90
32614;DHT22;19031;51.400;6.770;2023-07-09T00:15:22;22.60;99.90
32614;DHT22;19031;51.400;6.770;2023-07-09T00:17:47;22.50;99.90
32614;DHT22;19031;51.400;6.770;2023-07-09T00:20:14;22.60;99.90
32614;DHT22;19031;51.400;6.770;2023-07-09T00:22:40;22.50;99.90
32614;DHT22;19031;51.400;6.770;2023-07-09T00:25:07;22.50;99.90
32614;DHT22;19031;51.400;6.770;2023-07-09T00:27:33;22.50;99.90
32614;DHT22;19031;51.400;6.770;2023-07-09T00:29:59;22.40;99.90
32614;DHT22;19031;51.400;6.770;2023-07-09T00:32:24;22.30;99.90
32614;DHT22;19031;51.400;6.770;2023-07-09T00:34:50;22.30;99.90
32614;DHT22;19031;51.400;6.770;2023-07-09T00:37:17;22.30;99.90
32614;DHT22;19031;51.400;6.770;2023-07-09T00:39:43;22.30;99.90
32614;DHT22;19031;51.400;6.770;2023-07-09T00:42:11;22.20;99.90
32614;DHT22;19031;51.400;6.770;2023-07-09T00:44:40;22.30;99.90
32614;DHT22;19031;51.400;6.770;2023-07-09T00:49:56;22.10;99.90
32614;DHT22;19031;51.400;6.770;2023-07-09T00:52:26;22.10;99.90
32614;DHT22;19031;51.400;6.770;2023-07-09T00:54:55;22.00;99.90
32614;DHT22;19031;51.400;6.770;2023-07-09T00:57:21;21.90;99.90
32614;DHT22;19031;51.400;6.770;2023-07-09T00:59:50;21.90;99.90
32614;DHT22;19031;51.400;6.770;2023-07-09T01:02:16;22.00;99.90
32614;DHT22;19031;51.400;6.770;2023-07-09T01:04:55;21.80;99.90
32614;DHT22;19031;51.400;6.770;2023-07-09T01:07:26;21.90;99.90
32614;DHT22;19031;51.400;6.770;2023-07-09T01:09:51;21.90;99.90
32614;DHT22;19031;51.400;6.770;2023-07-09T01:12:17;21.80;99.90
32614;DHT22;19031;51.400;6.770;2023-07-09T01:14:44;21.80;99.90
32614;DHT22;19031;51.400;6.770;2023-07-09T01:17:13;21.80;99.90
32614;DHT22;19031;51.400;6.770;2023-07-09T01:19:40;21.70;99.90
32614;DHT22;19031;51.400;6.770;2023-07-09T01:22:10;21.70;99.90
32614;DHT22;19031;51.400;6.770;2023-07-09T01:27:14;21.60;99.90
32614;DHT22;19031;51.400;6.770;2023-07-09T01:29:39;21.70;99.90
32614;DHT22;19031;51.400;6.770;2023-07-09T01:32:06;21.60;99.90
32614;DHT22;19031;51.400;6.770;2023-07-09T01:34:32;21.50;99.90
32614;DHT22;19031;51.400;6.770;2023-07-09T01:36:58;21.60;99.90
32614;DHT22;19031;51.400;6.770;2023-07-09T01:39:24;21.50;99.90
32614;DHT22;19031;51.400;6.770;2023-07-09T01:41:49;21.50;99.90
32614;DHT22;19031;51.400;6.770;2023-07-09T01:44:15;21.50;99.90
32614;DHT22;19031;51.400;6.770;2023-07-09T01:46:41;21.40;99.90
32614;DHT22;19031;51.400;6.770;2023-07-09T01:49:07;21.40;99.90
32614;DHT22;19031;51.400;6.770;2023-07-09T01:51:34;21.40;99.90
32614;DHT22;19031;51.400;6.770;2023-07-09T01:54:01;21.30;99.90
32614;DHT22;19031;51.400;6.770;2023-07-09T01:56:27;21.30;99.90
32614;DHT22;19031;51.400;6.770;2023-07-09T01:58:52;21.30;99.90
32614;DHT22;19031;51.400;6.770;2023-07-09T02:01:18;21.20;99.90
32614;DHT22;19031;51.400;6.770;2023-07-09T02:03:45;21.20;99.90
32614;DHT22;19031;51.400;6.770;2023-07-09T02:06:10;21.10;99.90
32614;DHT22;19031;51.400;6.770;2023-07-09T02:08:36;21.10;99.90
32614;DHT22;19031;51.400;6.770;2023-07-09T02:11:02;21.10;99.90
32614;DHT22;19031;51.400;6.770;2023-07-09T02:13:28;21.00;99.90
32614;DHT22;19031;51.400;6.770;2023-07-09T02:15:53;21.00;99.90
32614;DHT22;19031;51.400;6.770;2023-07-09T02:18:19;20.90;99.90
32614;DHT22;19031;51.400;6.770;2023-07-09T02:20:47;20.90;99.90
32614;DHT22;19031;51.400;6.770;2023-07-09T02:23:13;20.90;99.90
32614;DHT22;19031;51.400;6.770;2023-07-09T02:25:38;20.90;99.90
32614;DHT22;19031;51.400;6.770;2023-07-09T02:28:04;20.80;99.90
32614;DHT22;19031;51.400;6.770;2023-07-09T02:30:29;20.80;99.90
32614;DHT22;19031;51.400;6.770;2023-07-09T02:32:55;20.80;99.90
32614;DHT22;19031;51.400;6.770;2023-07-09T02:35:21;20.80;99.90
32614;DHT22;19031;51.400;6.770;2023-07-09T02:37:47;20.70;99.90
32614;DHT22;19031;51.400;6.770;2023-07-09T02:40:12;20.70;99.90
32614;DHT22;19031;51.400;6.770;2023-07-09T02:42:38;20.60;99.90
32614;DHT22;19031;51.400;6.770;2023-07-09T02:45:04;20.70;99.90
32614;DHT22;19031;51.400;6.770;2023-07-09T02:47:29;20.60;99.90
32614;DHT22;19031;51.400;6.770;2023-07-09T02:49:55;20.60;99.90
32614;DHT22;19031;51.400;6.770;2023-07-09T02:52:20;20.50;99.90
32614;DHT22;19031;51.400;6.770;2023-07-09T02:54:46;20.50;99.90
32614;DHT22;19031;51.400;6.770;2023-07-09T02:57:11;20.50;99.90
32614;DHT22;19031;51.400;6.770;2023-07-09T02:59:37;20.50;99.90
32614;DHT22;19031;51.400;6.770;2023-07-09T03:02:02;20.40;99.90
32614;DHT22;19031;51.400;6.770;2023-07-09T03:04:28;20.40;99.90
32614;DHT22;19031;51.400;6.770;2023-07-09T03:06:54;20.40;99.90
32614;DHT22;19031;51.400;6.770;2023-07-09T03:09:20;20.30;99.90
32614;DHT22;19031;51.400;6.770;2023-07-09T03:11:45;20.30;99.90
32614;DHT22;19031;51.400;6.770;2023-07-09T03:14:11;20.30;99.90
32614;DHT22;19031;51.400;6.770;2023-07-09T03:16:36;20.30;99.90
32614;DHT22;19031;51.400;6.770;2023-07-09T03:19:03;20.40;99.90
32614;DHT22;19031;51.400;6.770;2023-07-09T03:21:29;20.30;99.90
32614;DHT22;19031;51.400;6.770;2023-07-09T03:23:55;20.30;99.90
32614;DHT22;19031;51.400;6.770;2023-07-09T03:26:21;20.30;99.90
32614;DHT22;19031;51.400;6.770;2023-07-09T03:28:46;20.20;99.90
32614;DHT22;19031;51.400;6.770;2023-07-09T03:31:12;20.20;99.90
32614;DHT22;19031;51.400;6.770;2023-07-09T03:33:37;20.20;99.90
32614;DHT22;19031;51.400;6.770;2023-07-09T03:36:03;20.20;99.90
32614;DHT22;19031;51.400;6.770;2023-07-09T03:38:29;20.20;99.90
32614;DHT22;19031;51.400;6.770;2023-07-09T03:40:55;20.20;99.90
32614;DHT22;19031;51.400;6.770;2023-07-09T03:43:21;20.10;99.90
32614;DHT22;19031;51.400;6.770;2023-07-09T03:45:47;20.10;99.90
32614;DHT22;19031;51.400;6.770;2023-07-09T03:48:12;20.10;99.90
32614;DHT22;19031;51.400;6.770;2023-07-09T03:50:38;20.10;99.90
32614;DHT22;19031;51.400;6.770;2023-07-09T03:53:04;20.10;99.90
32614;DHT22;19031;51.400;6.770;2023-07-09T03:55:31;20.10;99.90
32614;DHT22;19031;51.400;6.770;2023-07-09T03:57:56;20.10;99.90
32614;DHT22;19031;51.400;6.770;2023-07-09T04:00:22;20.10;99.90
32614;DHT22;19031;51.400;6.770;2023-07-09T04:02:48;20.10;99.90
32614;DHT22;19031;51.400;6.770;2023-07-09T04:05:13;20.20;99.90
32614;DHT22;19031;51.400;6.770;2023-07-09T04:07:39;20.20;99.90
32614;DHT22;19031;51.400;6.770;2023-07-09T04:10:05;20.20;99.90
32614;DHT22;19031;51.400;6.770;2023-07-09T04:12:31;20.20;99.90
32614;DHT22;19031;51.400;6.770;2023-07-09T04:14:56;20.30;99.90
32614;DHT22;19031;51.400;6.770;2023-07-09T04:17:22;20.30;99.90
32614;DHT22;19031;51.400;6.770;2023-07-09T04:19:49;20.30;99.90
32614;DHT22;19031;51.400;6.770;2023-07-09T04:22:14;20.40;99.90
32614;DHT22;19031;51.400;6.770;2023-07-09T04:24:40;20.40;99.90
32614;DHT22;19031;51.400;6.770;2023-07-09T04:27:05;20.40;99.90
32614;DHT22;19031;51.400;6.770;2023-07-09T04:29:31;20.50;99.90
32614;DHT22;19031;51.400;6.770;2023-07-09T04:31:59;20.50;99.90
32614;DHT22;19031;51.400;6.770;2023-07-09T04:34:25;20.60;99.90
32614;DHT22;19031;51.400;6.770;2023-07-09T04:36:51;20.70;99.90
32614;DHT22;19031;51.400;6.770;2023-07-09T04:39:16;20.80;99.90
32614;DHT22;19031;51.400;6.770;2023-07-09T04:41:42;20.80;99.90
32614;DHT22;19031;51.400;6.770;2023-07-09T04:44:08;20.90;99.90
32614;DHT22;19031;51.400;6.770;2023-07-09T04:46:33;21.00;99.90
32614;DHT22;19031;51.400;6.770;2023-07-09T04:48:59;21.00;99.90
32614;DHT22;19031;51.400;6.770;2023-07-09T04:51:25;21.20;99.90
32614;DHT22;19031;51.400;6.770;2023-07-09T04:53:51;21.20;99.90
32614;DHT22;19031;51.400;6.770;2023-07-09T04:56:17;21.30;99.90
32614;DHT22;19031;51.400;6.770;2023-07-09T04:58:42;21.40;99.90
32614;DHT22;19031;51.400;6.770;2023-07-09T05:01:08;21.60;99.90
32614;DHT22;19031;51.400;6.770;2023-07-09T05:03:33;21.70;99.90
32614;DHT22;19031;51.400;6.770;2023-07-09T05:05:59;21.80;99.90
32614;DHT22;19031;51.400;6.770;2023-07-09T05:08:24;21.90;99.90
32614;DHT22;19031;51.400;6.770;2023-07-09T05:10:50;22.10;99.90
32614;DHT22;19031;51.400;6.770;2023-07-09T05:13:17;22.20;99.90
32614;DHT22;19031;51.400;6.770;2023-07-09T05:15:43;22.30;99.90
32614;DHT22;19031;51.400;6.770;2023-07-09T05:18:10;22.40;99.90
32614;DHT22;19031;51.400;6.770;2023-07-09T05:20:35;22.60;99.90
32614;DHT22;19031;51.400;6.770;2023-07-09T05:23:01;22.70;99.90
32614;DHT22;19031;51.400;6.770;2023-07-09T05:25:26;22.90;99.90
32614;DHT22;19031;51.400;6.770;2023-07-09T05:27:52;23.00;99.90
32614;DHT22;19031;51.400;6.770;2023-07-09T05:30:18;23.10;99.90
32614;DHT22;19031;51.400;6.770;2023-07-09T05:32:43;23.30;99.90
32614;DHT22;19031;51.400;6.770;2023-07-09T05:35:09;23.50;99.90
32614;DHT22;19031;51.400;6.770;2023-07-09T05:37:35;23.60;99.90
32614;DHT22;19031;51.400;6.770;2023-07-09T05:40:00;23.60;99.90
32614;DHT22;19031;51.400;6.770;2023-07-09T05:42:26;23.80;99.90
32614;DHT22;19031;51.400;6.770;2023-07-09T05:44:51;23.90;99.90
32614;DHT22;19031;51.400;6.770;2023-07-09T05:47:17;24.00;99.90
32614;DHT22;19031;51.400;6.770;2023-07-09T05:49:43;24.10;99.90
32614;DHT22;19031;51.400;6.770;2023-07-09T05:52:08;24.10;99.90
32614;DHT22;19031;51.400;6.770;2023-07-09T05:54:34;24.10;99.90
32614;DHT22;19031;51.400;6.770;2023-07-09T05:56:59;24.30;99.90
32614;DHT22;19031;51.400;6.770;2023-07-09T05:59:25;24.30;99.90
32614;DHT22;19031;51.400;6.770;2023-07-09T06:01:50;24.50;99.90
32614;DHT22;19031;51.400;6.770;2023-07-09T06:04:16;24.50;99.90
32614;DHT22;19031;51.400;6.770;2023-07-09T06:06:41;24.60;99.90
32614;DHT22;19031;51.400;6.770;2023-07-09T06:09:07;24.80;99.90
32614;DHT22;19031;51.400;6.770;2023-07-09T06:11:33;24.80;99.90
32614;DHT22;19031;51.400;6.770;2023-07-09T06:13:59;24.90;99.90
32614;DHT22;19031;51.400;6.770;2023-07-09T06:16:24;24.90;99.90
32614;DHT22;19031;51.400;6.770;2023-07-09T06:18:50;25.10;99.90
32614;DHT22;19031;51.400;6.770;2023-07-09T06:21:15;25.20;99.90
32614;DHT22;19031;51.400;6.770;2023-07-09T06:23:41;25.30;99.90
32614;DHT22;19031;51.400;6.770;2023-07-09T06:26:06;25.40;99.90
32614;DHT22;19031;51.400;6.770;2023-07-09T06:28:32;25.50;99.90
32614;DHT22;19031;51.400;6.770;2023-07-09T06:30:57;25.60;99.90
32614;DHT22;19031;51.400;6.770;2023-07-09T06:33:23;25.80;99.90
32614;DHT22;19031;51.400;6.770;2023-07-09T06:35:49;25.90;99.90
32614;DHT22;19031;51.400;6.770;2023-07-09T06:38:15;26.00;99.90
32614;DHT22;19031;51.400;6.770;2023-07-09T06:40:41;26.10;99.90
32614;DHT22;19031;51.400;6.770;2023-07-09T06:43:07;26.20;99.90
32614;DHT22;19031;51.400;6.770;2023-07-09T06:45:32;26.40;99.90
32614;DHT22;19031;51.400;6.770;2023-07-09T06:47:58;26.60;99.90
32614;DHT22;19031;51.400;6.770;2023-07-09T06:50:24;26.70;99.90
32614;DHT22;19031;51.400;6.770;2023-07-09T06:52:49;26.90;99.90
32614;DHT22;19031;51.400;6.770;2023-07-09T06:55:15;27.10;99.90
32614;DHT22;19031;51.400;6.770;2023-07-09T06:57:42;27.30;99.90
32614;DHT22;19031;51.400;6.770;2023-07-09T07:00:08;27.60;99.90
32614;DHT22;19031;51.400;6.770;2023-07-09T07:02:33;27.90;99.90
32614;DHT22;19031;51.400;6.770;2023-07-09T07:04:59;28.10;99.90
32614;DHT22;19031;51.400;6.770;2023-07-09T07:07:24;28.40;99.90
32614;DHT22;19031;51.400;6.770;2023-07-09T07:09:50;28.50;99.90
32614;DHT22;19031;51.400;6.770;2023-07-09T07:12:28;28.80;99.90
32614;DHT22;19031;51.400;6.770;2023-07-09T07:14:54;29.00;99.90
32614;DHT22;19031;51.400;6.770;2023-07-09T07:17:20;29.30;99.90
32614;DHT22;19031;51.400;6.770;2023-07-09T07:19:46;29.40;99.90
32614;DHT22;19031;51.400;6.770;2023-07-09T07:22:11;29.60;99.90
32614;DHT22;19031;51.400;6.770;2023-07-09T07:24:37;29.90;99.90
32614;DHT22;19031;51.400;6.770;2023-07-09T07:27:02;30.20;99.90
32614;DHT22;19031;51.400;6.770;2023-07-09T07:29:28;30.40;99.90
32614;DHT22;19031;51.400;6.770;2023-07-09T07:31:54;30.40;99.50
32614;DHT22;19031;51.400;6.770;2023-07-09T07:34:19;30.70;98.70
32614;DHT22;19031;51.400;6.770;2023-07-09T07:36:45;30.90;99.10
32614;DHT22;19031;51.400;6.770;2023-07-09T07:39:10;31.00;98.30
32614;DHT22;19031;51.400;6.770;2023-07-09T07:41:35;31.20;98.20
32614;DHT22;19031;51.400;6.770;2023-07-09T07:44:01;31.30;97.30
32614;DHT22;19031;51.400;6.770;2023-07-09T07:46:27;31.50;97.70
32614;DHT22;19031;51.400;6.770;2023-07-09T07:48:54;31.70;96.70
32614;DHT22;19031;51.400;6.770;2023-07-09T07:51:20;31.80;96.40
32614;DHT22;19031;51.400;6.770;2023-07-09T07:53:47;32.10;96.30
32614;DHT22;19031;51.400;6.770;2023-07-09T07:56:14;32.40;95.60
32614;DHT22;19031;51.400;6.770;2023-07-09T07:58:39;32.60;94.40
32614;DHT22;19031;51.400;6.770;2023-07-09T08:01:05;32.80;94.10
32614;DHT22;19031;51.400;6.770;2023-07-09T08:03:30;32.80;94.20
32614;DHT22;19031;51.400;6.770;2023-07-09T08:05:56;33.20;93.40
32614;DHT22;19031;51.400;6.770;2023-07-09T08:08:21;33.30;92.60
32614;DHT22;19031;51.400;6.770;2023-07-09T08:10:47;33.50;91.90
32614;DHT22;19031;51.400;6.770;2023-07-09T08:13:12;33.80;91.70
32614;DHT22;19031;51.400;6.770;2023-07-09T08:15:38;34.10;90.40
32614;DHT22;19031;51.400;6.770;2023-07-09T08:18:04;34.20;90.30
32614;DHT22;19031;51.400;6.770;2023-07-09T08:20:29;34.40;89.60
32614;DHT22;19031;51.400;6.770;2023-07-09T08:22:55;34.60;90.30
32614;DHT22;19031;51.400;6.770;2023-07-09T08:25:20;34.80;91.20
32614;DHT22;19031;51.400;6.770;2023-07-09T08:27:46;35.00;86.90
32614;DHT22;19031;51.400;6.770;2023-07-09T08:30:11;34.90;87.20
32614;DHT22;19031;51.400;6.770;2023-07-09T08:32:37;35.20;85.40
32614;DHT22;19031;51.400;6.770;2023-07-09T08:35:02;35.50;85.50
32614;DHT22;19031;51.400;6.770;2023-07-09T08:37:28;35.90;82.10
32614;DHT22;19031;51.400;6.770;2023-07-09T08:39:53;35.90;80.10
32614;DHT22;19031;51.400;6.770;2023-07-09T08:42:21;36.20;77.10
32614;DHT22;19031;51.400;6.770;2023-07-09T08:50:01;36.30;76.00
32614;DHT22;19031;51.400;6.770;2023-07-09T08:52:35;36.40;75.00
32614;DHT22;19031;51.400;6.770;2023-07-09T08:55:04;36.80;74.70
32614;DHT22;19031;51.400;6.770;2023-07-09T08:57:40;36.70;74.70
32614;DHT22;19031;51.400;6.770;2023-07-09T09:00:13;36.40;74.40
32614;DHT22;19031;51.400;6.770;2023-07-09T09:02:42;36.80;74.20
32614;DHT22;19031;51.400;6.770;2023-07-09T09:05:09;37.30;72.10
32614;DHT22;19031;51.400;6.770;2023-07-09T09:10:16;37.70;70.10
32614;DHT22;19031;51.400;6.770;2023-07-09T09:12:47;37.80;67.40
32614;DHT22;19031;51.400;6.770;2023-07-09T09:15:16;38.00;65.40
32614;DHT22;19031;51.400;6.770;2023-07-09T09:17:43;38.10;66.20
32614;DHT22;19031;51.400;6.770;2023-07-09T09:20:12;38.30;66.60
32614;DHT22;19031;51.400;6.770;2023-07-09T09:22:46;38.40;65.30
32614;DHT22;19031;51.400;6.770;2023-07-09T09:27:45;38.60;63.20
32614;DHT22;19031;51.400;6.770;2023-07-09T09:30:17;38.40;60.90
32614;DHT22;19031;51.400;6.770;2023-07-09T09:32:44;38.60;62.70
32614;DHT22;19031;51.400;6.770;2023-07-09T09:35:11;38.90;60.10
32614;DHT22;19031;51.400;6.770;2023-07-09T09:37:37;38.80;61.50
32614;DHT22;19031;51.400;6.770;2023-07-09T09:40:02;38.90;61.50
32614;DHT22;19031;51.400;6.770;2023-07-09T09:42:28;39.20;60.40
32614;DHT22;19031;51.400;6.770;2023-07-09T09:44:54;39.70;57.80
32614;DHT22;19031;51.400;6.770;2023-07-09T09:47:20;39.90;57.70
32614;DHT22;19031;51.400;6.770;2023-07-09T09:49:45;39.80;56.90
32614;DHT22;19031;51.400;6.770;2023-07-09T09:52:15;39.90;55.10
32614;DHT22;19031;51.400;6.770;2023-07-09T09:54:43;40.00;56.20
32614;DHT22;19031;51.400;6.770;2023-07-09T09:57:27;40.30;54.30
32614;DHT22;19031;51.400;6.770;2023-07-09T09:59:56;40.20;55.30
32614;DHT22;19031;51.400;6.770;2023-07-09T10:02:23;40.30;53.60
32614;DHT22;19031;51.400;6.770;2023-07-09T10:04:49;40.10;53.30
32614;DHT22;19031;51.400;6.770;2023-07-09T10:07:23;40.10;54.60
32614;DHT22;19031;51.400;6.770;2023-07-09T10:09:53;40.30;53.40
32614;DHT22;19031;51.400;6.770;2023-07-09T10:18:00;40.50;55.10
32614;DHT22;19031;51.400;6.770;2023-07-09T10:20:02;40.70;51.30
32614;DHT22;19031;51.400;6.770;2023-07-09T10:22:50;40.80;51.80
32614;DHT22;19031;51.400;6.770;2023-07-09T10:30:39;40.90;49.70
32614;DHT22;19031;51.400;6.770;2023-07-09T10:33:10;40.90;50.50
32614;DHT22;19031;51.400;6.770;2023-07-09T10:38:08;41.30;50.50
32614;DHT22;19031;51.400;6.770;2023-07-09T10:40:38;41.40;51.00
32614;DHT22;19031;51.400;6.770;2023-07-09T10:43:05;41.90;49.80
32614;DHT22;19031;51.400;6.770;2023-07-09T10:45:39;41.80;48.70
32614;DHT22;19031;51.400;6.770;2023-07-09T10:48:22;42.00;46.80
32614;DHT22;19031;51.400;6.770;2023-07-09T10:50:51;42.00;47.90
32614;DHT22;19031;51.400;6.770;2023-07-09T10:55:56;42.30;49.80
32614;DHT22;19031;51.400;6.770;2023-07-09T10:58:27;42.40;48.50
32614;DHT22;19031;51.400;6.770;2023-07-09T11:00:53;42.70;46.20
32614;DHT22;19031;51.400;6.770;2023-07-09T11:03:19;42.90;49.00
32614;DHT22;19031;51.400;6.770;2023-07-09T11:05:46;42.80;48.70
32614;DHT22;19031;51.400;6.770;2023-07-09T11:08:15;42.70;47.50
32614;DHT22;19031;51.400;6.770;2023-07-09T11:13:14;42.90;45.40
32614;DHT22;19031;51.400;6.770;2023-07-09T11:15:42;42.60;46.90
32614;DHT22;19031;51.400;6.770;2023-07-09T11:18:13;42.50;46.40
32614;DHT22;19031;51.400;6.770;2023-07-09T11:20:44;42.70;47.50
32614;DHT22;19031;51.400;6.770;2023-07-09T11:23:20;42.40;46.00
32614;DHT22;19031;51.400;6.770;2023-07-09T11:25:47;42.30;46.10
32614;DHT22;19031;51.400;6.770;2023-07-09T11:28:12;42.40;48.20
32614;DHT22;19031;51.400;6.770;2023-07-09T11:30:48;42.30;47.80
32614;DHT22;19031;51.400;6.770;2023-07-09T11:33:16;42.40;47.20
32614;DHT22;19031;51.400;6.770;2023-07-09T11:35:45;42.60;46.00
32614;DHT22;19031;51.400;6.770;2023-07-09T11:38:15;42.80;45.60
32614;DHT22;19031;51.400;6.770;2023-07-09T11:40:45;42.80;45.40
32614;DHT22;19031;51.400;6.770;2023-07-09T11:43:24;43.10;48.10
32614;DHT22;19031;51.400;6.770;2023-07-09T11:45:50;43.30;46.30
32614;DHT22;19031;51.400;6.770;2023-07-09T11:48:22;43.90;47.00
32614;DHT22;19031;51.400;6.770;2023-07-09T11:50:50;43.90;46.00
32614;DHT22;19031;51.400;6.770;2023-07-09T11:55:45;43.80;43.90
32614;DHT22;19031;51.400;6.770;2023-07-09T11:58:12;43.20;43.90
32614;DHT22;19031;51.400;6.770;2023-07-09T12:00:41;43.30;43.10
32614;DHT22;19031;51.400;6.770;2023-07-09T12:03:10;43.20;45.90
32614;DHT22;19031;51.400;6.770;2023-07-09T12:05:38;43.20;45.30
32614;DHT22;19031;51.400;6.770;2023-07-09T12:08:06;43.10;47.00
32614;DHT22;19031;51.400;6.770;2023-07-09T12:10:33;42.80;45.30
32614;DHT22;19031;51.400;6.770;2023-07-09T12:12:59;43.10;45.50
32614;DHT22;19031;51.400;6.770;2023-07-09T12:15:25;42.80;44.00
32614;DHT22;19031;51.400;6.770;2023-07-09T12:17:55;42.90;44.60
32614;DHT22;19031;51.400;6.770;2023-07-09T12:20:21;43.00;45.00
32614;DHT22;19031;51.400;6.770;2023-07-09T12:22:46;42.90;44.30
32614;DHT22;19031;51.400;6.770;2023-07-09T12:25:19;42.60;46.70
32614;DHT22;19031;51.400;6.770;2023-07-09T12:27:45;42.70;47.40
32614;DHT22;19031;51.400;6.770;2023-07-09T12:30:11;42.60;45.80
32614;DHT22;19031;51.400;6.770;2023-07-09T12:32:42;42.60;44.90
32614;DHT22;19031;51.400;6.770;2023-07-09T12:35:11;42.50;45.20
32614;DHT22;19031;51.400;6.770;2023-07-09T12:37:37;42.30;43.90
32614;DHT22;19031;51.400;6.770;2023-07-09T12:40:02;42.00;44.70
32614;DHT22;19031;51.400;6.770;2023-07-09T12:42:30;42.00;45.90
32614;DHT22;19031;51.400;6.770;2023-07-09T12:44:56;41.60;45.90
32614;DHT22;19031;51.400;6.770;2023-07-09T12:47:23;41.30;47.30
32614;DHT22;19031;51.400;6.770;2023-07-09T12:49:50;41.10;47.00
32614;DHT22;19031;51.400;6.770;2023-07-09T12:52:18;40.80;48.10
32614;DHT22;19031;51.400;6.770;2023-07-09T12:54:51;40.80;48.00
32614;DHT22;19031;51.400;6.770;2023-07-09T12:57:17;40.70;46.90
32614;DHT22;19031;51.400;6.770;2023-07-09T12:59:45;40.50;48.00
32614;DHT22;19031;51.400;6.770;2023-07-09T13:02:18;40.40;47.60
32614;DHT22;19031;51.400;6.770;2023-07-09T13:04:45;40.10;47.40
32614;DHT22;19031;51.400;6.770;2023-07-09T13:09:48;39.80;49.90
32614;DHT22;19031;51.400;6.770;2023-07-09T13:12:14;39.70;51.80
32614;DHT22;19031;51.400;6.770;2023-07-09T13:14:39;39.50;48.10
32614;DHT22;19031;51.400;6.770;2023-07-09T13:17:06;39.10;50.30
32614;DHT22;19031;51.400;6.770;2023-07-09T13:19:33;39.00;50.40
32614;DHT22;19031;51.400;6.770;2023-07-09T13:21:58;38.70;52.00
32614;DHT22;19031;51.400;6.770;2023-07-09T13:24:25;38.50;51.80
32614;DHT22;19031;51.400;6.770;2023-07-09T13:26:53;38.40;53.90
32614;DHT22;19031;51.400;6.770;2023-07-09T13:29:19;38.10;54.70
32614;DHT22;19031;51.400;6.770;2023-07-09T13:31:45;37.90;55.40
32614;DHT22;19031;51.400;6.770;2023-07-09T13:34:24;37.70;58.00
32614;DHT22;19031;51.400;6.770;2023-07-09T13:36:51;37.30;62.80
32614;DHT22;19031;51.400;6.770;2023-07-09T13:39:16;36.80;64.60
32614;DHT22;19031;51.400;6.770;2023-07-09T13:41:46;36.40;63.10
32614;DHT22;19031;51.400;6.770;2023-07-09T13:44:14;35.60;64.30
32614;DHT22;19031;51.400;6.770;2023-07-09T13:46:39;34.60;65.80
32614;DHT22;19031;51.400;6.770;2023-07-09T13:49:09;33.90;68.00
32614;DHT22;19031;51.400;6.770;2023-07-09T13:51:35;33.10;72.50
32614;DHT22;19031;51.400;6.770;2023-07-09T13:54:00;32.60;73.70
32614;DHT22;19031;51.400;6.770;2023-07-09T13:56:28;32.20;78.10
32614;DHT22;19031;51.400;6.770;2023-07-09T13:58:54;31.60;77.60
32614;DHT22;19031;51.400;6.770;2023-07-09T14:01:23;31.10;83.80
32614;DHT22;19031;51.400;6.770;2023-07-09T14:03:49;30.70;96.20
32614;DHT22;19031;51.400;6.770;2023-07-09T14:06:15;30.20;97.10
32614;DHT22;19031;51.400;6.770;2023-07-09T14:08:41;29.80;99.90
32614;DHT22;19031;51.400;6.770;2023-07-09T14:11:16;29.60;99.90
32614;DHT22;19031;51.400;6.770;2023-07-09T14:13:42;29.50;99.90
32614;DHT22;19031;51.400;6.770;2023-07-09T14:16:11;29.10;99.90
32614;DHT22;19031;51.400;6.770;2023-07-09T14:18:37;28.80;99.90
32614;DHT22;19031;51.400;6.770;2023-07-09T14:21:22;28.70;99.90
32614;DHT22;19031;51.400;6.770;2023-07-09T14:23:48;28.50;99.90
32614;DHT22;19031;51.400;6.770;2023-07-09T14:26:14;28.50;99.90
32614;DHT22;19031;51.400;6.770;2023-07-09T14:28:39;28.50;99.90
32614;DHT22;19031;51.400;6.770;2023-07-09T14:31:12;28.50;99.90
32614;DHT22;19031;51.400;6.770;2023-07-09T14:33:39;28.40;99.90
32614;DHT22;19031;51.400;6.770;2023-07-09T14:36:05;28.30;99.90
32614;DHT22;19031;51.400;6.770;2023-07-09T14:38:30;28.30;99.90
32614;DHT22;19031;51.400;6.770;2023-07-09T14:40:56;28.20;99.90
32614;DHT22;19031;51.400;6.770;2023-07-09T14:43:22;28.00;99.90
32614;DHT22;19031;51.400;6.770;2023-07-09T14:45:48;27.90;99.90
32614;DHT22;19031;51.400;6.770;2023-07-09T14:48:15;27.70;99.90
32614;DHT22;19031;51.400;6.770;2023-07-09T14:50:41;27.40;99.90
32614;DHT22;19031;51.400;6.770;2023-07-09T14:53:20;27.00;99.90
32614;DHT22;19031;51.400;6.770;2023-07-09T14:55:46;26.70;99.90
32614;DHT22;19031;51.400;6.770;2023-07-09T14:58:13;26.30;99.90
32614;DHT22;19031;51.400;6.770;2023-07-09T15:00:39;26.10;99.90
32614;DHT22;19031;51.400;6.770;2023-07-09T15:03:07;25.80;99.90
32614;DHT22;19031;51.400;6.770;2023-07-09T15:05:34;25.60;99.90
32614;DHT22;19031;51.400;6.770;2023-07-09T15:07:59;25.30;99.90
32614;DHT22;19031;51.400;6.770;2023-07-09T15:10:26;25.20;99.90
32614;DHT22;19031;51.400;6.770;2023-07-09T15:12:52;25.00;99.90
32614;DHT22;19031;51.400;6.770;2023-07-09T15:15:20;25.00;99.90
32614;DHT22;19031;51.400;6.770;2023-07-09T15:17:46;24.80;99.90
32614;DHT22;19031;51.400;6.770;2023-07-09T15:20:22;24.70;99.90
32614;DHT22;19031;51.400;6.770;2023-07-09T15:22:48;24.30;99.90
32614;DHT22;19031;51.400;6.770;2023-07-09T15:25:15;24.10;99.90
32614;DHT22;19031;51.400;6.770;2023-07-09T15:27:42;24.00;99.90
32614;DHT22;19031;51.400;6.770;2023-07-09T15:30:26;24.00;99.90
32614;DHT22;19031;51.400;6.770;2023-07-09T15:32:54;24.00;99.90
32614;DHT22;19031;51.400;6.770;2023-07-09T15:35:20;24.00;99.90
32614;DHT22;19031;51.400;6.770;2023-07-09T15:37:45;23.90;99.90
32614;DHT22;19031;51.400;6.770;2023-07-09T15:42:46;24.00;99.90
32614;DHT22;19031;51.400;6.770;2023-07-09T15:45:13;23.90;99.90
32614;DHT22;19031;51.400;6.770;2023-07-09T15:47:39;23.90;99.90
32614;DHT22;19031;51.400;6.770;2023-07-09T15:50:12;23.90;99.90
32614;DHT22;19031;51.400;6.770;2023-07-09T15:52:38;23.90;99.90
32614;DHT22;19031;51.400;6.770;2023-07-09T15:55:03;23.90;99.90
32614;DHT22;19031;51.400;6.770;2023-07-09T15:57:29;23.90;99.90
32614;DHT22;19031;51.400;6.770;2023-07-09T15:59:54;23.90;99.90
32614;DHT22;19031;51.400;6.770;2023-07-09T16:02:20;23.90;99.90
32614;DHT22;19031;51.400;6.770;2023-07-09T16:04:45;23.80;99.90
32614;DHT22;19031;51.400;6.770;2023-07-09T16:07:11;23.70;99.90
32614;DHT22;19031;51.400;6.770;2023-07-09T16:09:36;23.80;99.90